TimePST,TemperatureF,Dew PointF,Humidity,Sea Level PressureIn,VisibilityMPH,Wind Direction,Wind SpeedMPH,Gust SpeedMPH,PrecipitationIn,Events,Conditions,WindDirDegrees,DateUTC
12:00 AM,37.4,30.2,75,30.08,9.0,East,9.2,-,N/A,,Clear,90,2013-03-05 08:00:00
1:00 AM,38,30,65,30.08,,North,5.8,,,,,0,2013-03-05 09:00:00
1:00 AM,37.4,30.2,75,30.08,9.0,East,8.1,-,N/A,,Clear,90,2013-03-05 09:00:00
2:00 AM,37.4,30.2,75,30.07,9.0,ENE,6.9,-,N/A,,Partly Cloudy,60,2013-03-05 10:00:00
3:00 AM,35.6,30.2,81,30.06,9.0,ENE,6.9,-,N/A,,Mostly Cloudy,60,2013-03-05 11:00:00
4:00 AM,37,29,65,30.04,,Calm,Calm,,,,,,2013-03-05 12:00:00
4:00 AM,37.4,30.2,75,30.04,9.0,ENE,4.6,-,N/A,,Overcast,60,2013-03-05 12:00:00
5:00 AM,37.4,28.4,70,30.03,9.0,East,6.9,-,N/A,,Overcast,80,2013-03-05 13:00:00
6:00 AM,37.4,28.4,70,30.02,9.0,East,4.6,-,N/A,,Mostly Cloudy,80,2013-03-05 14:00:00
7:00 AM,40,27,49,30.01,,North,6.9,,,,,0,2013-03-05 15:00:00
7:00 AM,39.2,26.6,61,30.01,9.0,SE,9.2,-,N/A,,Overcast,140,2013-03-05 15:00:00
8:00 AM,41.0,26.6,57,30.00,9.0,SE,11.5,-,N/A,,Overcast,140,2013-03-05 16:00:00
9:00 AM,42.8,26.6,53,30.00,9.0,SSE,10.4,-,N/A,,Overcast,150,2013-03-05 17:00:00
10:00 AM,43,28,44,29.99,,Calm,Calm,,,,,,2013-03-05 18:00:00
10:00 AM,42.8,28.4,57,29.99,9.0,SE,10.4,17.3,N/A,,Overcast,130,2013-03-05 18:00:00
11:00 AM,44.6,26.6,49,29.97,9.0,SSE,12.7,19.6,N/A,,Overcast,150,2013-03-05 19:00:00
12:00 PM,44.6,30.2,57,29.95,9.0,Variable,8.1,18.4,N/A,,Overcast,0,2013-03-05 20:00:00
1:00 PM,44,32,52,29.93,,North,12.7,,,,,0,2013-03-05 21:00:00
1:00 PM,44.6,32.0,61,29.93,9.0,ESE,15.0,21.9,N/A,,Overcast,110,2013-03-05 21:00:00
2:00 PM,44.6,32.0,61,29.91,9.0,ESE,12.7,19.6,N/A,,Overcast,120,2013-03-05 22:00:00
3:00 PM,46.4,32.0,57,29.88,9.0,ESE,12.7,18.4,N/A,,Mostly Cloudy,110,2013-03-05 23:00:00
4:00 PM,46,32,46,29.85,,Calm,Calm,,,,,,2013-03-06 00:00:00
4:00 PM,46.4,32.0,57,29.85,9.0,ESE,16.1,-,N/A,,Overcast,120,2013-03-06 00:00:00
5:00 PM,46.4,32.0,57,29.84,9.0,ESE,11.5,18.4,N/A,,Overcast,110,2013-03-06 01:00:00
6:00 PM,44.6,32.0,61,29.83,9.0,ESE,9.2,-,N/A,,Overcast,120,2013-03-06 02:00:00
7:00 PM,46,31,44,29.83,,North,9.2,,,,,0,2013-03-06 03:00:00
7:00 PM,46.4,30.2,53,29.84,9.0,SE,9.2,-,N/A,,Overcast,140,2013-03-06 03:00:00
8:00 PM,44.6,32.0,61,29.83,9.0,ENE,4.6,-,N/A,,Overcast,60,2013-03-06 04:00:00
9:00 PM,42.8,33.8,70,29.83,9.0,ENE,4.6,-,N/A,,Overcast,70,2013-03-06 05:00:00
10:00 PM,44,33,54,29.83,,Calm,Calm,,,,,,2013-03-06 06:00:00
10:00 PM,44.6,32.0,61,29.84,9.0,East,4.6,-,N/A,,Overcast,100,2013-03-06 06:00:00
11:00 PM,44.6,32.0,61,29.83,9.0,SE,9.2,17.3,N/A,,Overcast,140,2013-03-06 07:00:00